Time;durP1;ratioP1;P1;durP2;ratioP2;P2;SDS_P1;SDS_P2;PMS_P1;PMS_P2;Temp;Humidity;BMP_temperature;BMP_pressure;BME280_temperature;BME280_humidity;BME280_pressure;Samples;Min_cycle;Max_cycle;Signal;HPM_P1;HPM_P2
2022/01/05 00:02:05;;;;;;;;;;;4.20;99.90;;;;;;5027758;28;19915;-69
2022/01/05 00:04:31;;;;;;;;;;;4.20;99.90;;;;;;5009476;28;19935;-68
2022/01/05 00:06:56;;;;;;;;;;;4.20;99.90;;;;;;5026762;28;19916;-68
2022/01/05 00:09:21;;;;;;;;;;;4.10;99.90;;;;;;5027456;28;19917;-71
2022/01/05 00:11:47;;;;;;;;;;;4.10;99.90;;;;;;5028425;28;19909;-69
2022/01/05 00:14:12;;;;;;;;;;;4.10;99.90;;;;;;5027995;28;19910;-68
2022/01/05 00:16:38;;;;;;;;;;;4.00;99.90;;;;;;5027922;28;19983;-73
2022/01/05 00:19:03;;;;;;;;;;;4.10;99.90;;;;;;5028836;28;19913;-74
2022/01/05 00:21:29;;;;;;;;;;;4.10;99.90;;;;;;5029958;28;19956;-72
2022/01/05 00:23:54;;;;;;;;;;;4.00;99.90;;;;;;5037503;28;19931;-69
2022/01/05 00:26:20;;;;;;;;;;;4.00;99.90;;;;;;5039505;28;19909;-70
2022/01/05 00:28:45;;;;;;;;;;;4.00;99.90;;;;;;5041243;28;19917;-70
2022/01/05 00:31:11;;;;;;;;;;;4.00;99.90;;;;;;5035670;28;19979;-69
2022/01/05 00:33:36;;;;;;;;;;;4.00;99.90;;;;;;5029962;28;20176;-70
2022/01/05 00:36:03;;;;;;;;;;;4.10;99.90;;;;;;5026620;28;19913;-73
2022/01/05 00:38:29;;;;;;;;;;;3.90;99.90;;;;;;5031331;28;19920;-70
2022/01/05 00:40:54;;;;;;;;;;;3.90;99.90;;;;;;5026907;28;19917;-69
2022/01/05 00:43:20;;;;;;;;;;;3.90;99.90;;;;;;5028735;28;19913;-68
2022/01/05 00:45:45;;;;;;;;;;;3.80;99.90;;;;;;5041720;28;19939;-68
2022/01/05 00:48:11;;;;;;;;;;;3.80;99.90;;;;;;5037316;28;19996;-71
2022/01/05 00:50:36;;;;;;;;;;;3.80;99.90;;;;;;5030527;28;20224;-67
2022/01/05 00:53:02;;;;;;;;;;;3.80;99.90;;;;;;5028006;28;19965;-69
2022/01/05 00:55:28;;;;;;;;;;;3.80;99.90;;;;;;5028306;28;20374;-69
2022/01/05 00:57:53;;;;;;;;;;;3.80;99.90;;;;;;5027798;28;19920;-69
2022/01/05 01:00:19;;;;;;;;;;;3.70;99.90;;;;;;5029087;28;20274;-70
2022/01/05 01:02:44;;;;;;;;;;;3.80;99.90;;;;;;5027016;28;19980;-71
2022/01/05 01:05:11;;;;;;;;;;;3.80;99.90;;;;;;5026225;28;19970;-73
2022/01/05 01:07:36;;;;;;;;;;;3.80;99.90;;;;;;5026490;28;20039;-71
2022/01/05 01:10:02;;;;;;;;;;;3.80;99.90;;;;;;5025748;28;20353;-70
2022/01/05 01:12:28;;;;;;;;;;;3.90;99.90;;;;;;5026287;28;20521;-70
2022/01/05 01:14:53;;;;;;;;;;;3.80;99.90;;;;;;5023198;28;19966;-70
2022/01/05 01:17:19;;;;;;;;;;;3.80;99.90;;;;;;5027177;28;19955;-71
2022/01/05 01:19:44;;;;;;;;;;;3.70;99.90;;;;;;5025844;28;19994;-67
2022/01/05 01:22:10;;;;;;;;;;;3.70;99.90;;;;;;5025720;28;19917;-70
2022/01/05 01:24:35;;;;;;;;;;;3.70;99.90;;;;;;5026806;28;19909;-70
2022/01/05 01:27:01;;;;;;;;;;;3.70;99.90;;;;;;5028327;28;19909;-70
2022/01/05 01:29:26;;;;;;;;;;;3.70;99.90;;;;;;5027197;28;19924;-70
2022/01/05 01:31:51;;;;;;;;;;;3.70;99.90;;;;;;5026613;28;19920;-71
2022/01/05 01:34:17;;;;;;;;;;;3.70;99.90;;;;;;5007878;28;19914;-69
2022/01/05 01:36:42;;;;;;;;;;;3.70;99.90;;;;;;5009213;28;20361;-70
2022/01/05 01:39:08;;;;;;;;;;;3.60;99.90;;;;;;5006765;28;20511;-69
2022/01/05 01:41:33;;;;;;;;;;;3.60;99.90;;;;;;5024861;28;19913;-70
2022/01/05 01:43:59;;;;;;;;;;;3.60;99.90;;;;;;5024890;28;19913;-69
2022/01/05 01:46:24;;;;;;;;;;;3.60;99.90;;;;;;5025779;28;20050;-69
2022/01/05 01:48:50;;;;;;;;;;;3.60;99.90;;;;;;5026648;28;20388;-70
2022/01/05 01:51:17;;;;;;;;;;;3.50;99.90;;;;;;5022441;28;19963;-69
2022/01/05 01:53:43;;;;;;;;;;;3.50;99.90;;;;;;5034919;28;19912;-69
2022/01/05 01:56:09;;;;;;;;;;;3.50;99.90;;;;;;5029643;28;19920;-70
2022/01/05 01:58:35;;;;;;;;;;;3.50;99.90;;;;;;5032077;28;19913;-72
2022/01/05 02:01:01;;;;;;;;;;;3.50;99.90;;;;;;5032691;28;19909;-69
2022/01/05 02:03:26;;;;;;;;;;;3.40;99.90;;;;;;5027143;28;19917;-69
2022/01/05 02:05:52;;;;;;;;;;;3.50;99.90;;;;;;5025671;28;19917;-70
2022/01/05 02:08:17;;;;;;;;;;;3.50;99.90;;;;;;5026014;28;20440;-68
2022/01/05 02:10:43;;;;;;;;;;;3.30;99.90;;;;;;5044247;28;19909;-71
2022/01/05 02:13:09;;;;;;;;;;;3.30;99.90;;;;;;5027150;28;19917;-74
2022/01/05 02:15:35;;;;;;;;;;;3.40;99.90;;;;;;5024145;28;20699;-71
2022/01/05 02:20:32;;;;;;;;;;;3.30;99.90;;;;;;5028578;28;20366;-69
2022/01/05 02:22:58;;;;;;;;;;;3.30;99.90;;;;;;5029380;28;20337;-69
2022/01/05 02:25:24;;;;;;;;;;;3.20;99.90;;;;;;5019492;28;19913;-68
2022/01/05 02:27:51;;;;;;;;;;;3.20;99.90;;;;;;5028518;28;19952;-69
2022/01/05 02:30:22;;;;;;;;;;;3.20;99.90;;;;;;5028919;28;20004;-71
2022/01/05 02:32:49;;;;;;;;;;;3.30;99.90;;;;;;5026044;28;20303;-71
2022/01/05 02:35:15;;;;;;;;;;;3.30;99.90;;;;;;5024407;28;19909;-70
2022/01/05 02:37:46;;;;;;;;;;;3.30;99.90;;;;;;5027721;28;20532;-70
2022/01/05 02:40:13;;;;;;;;;;;3.30;99.90;;;;;;5027806;28;19924;-70
2022/01/05 02:42:39;;;;;;;;;;;3.30;99.90;;;;;;5027678;28;20146;-70
2022/01/05 02:45:05;;;;;;;;;;;3.40;99.90;;;;;;5009457;28;20095;-70
2022/01/05 02:47:30;;;;;;;;;;;3.40;99.90;;;;;;5027317;28;19909;-70
2022/01/05 02:49:59;;;;;;;;;;;3.40;99.90;;;;;;5026777;28;19909;-69
2022/01/05 02:52:24;;;;;;;;;;;3.50;99.90;;;;;;5028596;28;19936;-69
2022/01/05 02:54:50;;;;;;;;;;;3.50;99.90;;;;;;5027957;28;19909;-67
2022/01/05 02:57:15;;;;;;;;;;;3.60;99.90;;;;;;5028107;28;20093;-69
2022/01/05 02:59:41;;;;;;;;;;;3.60;99.90;;;;;;5029319;28;20374;-69
2022/01/05 03:02:06;;;;;;;;;;;3.60;99.90;;;;;;5029358;28;20373;-68
2022/01/05 03:04:32;;;;;;;;;;;3.60;99.90;;;;;;5028173;28;19909;-72
2022/01/05 03:06:57;;;;;;;;;;;3.60;99.90;;;;;;5027166;28;19909;-72
2022/01/05 03:09:23;;;;;;;;;;;3.60;99.90;;;;;;5026678;28;20380;-71
2022/01/05 03:11:48;;;;;;;;;;;3.70;99.90;;;;;;5027121;28;20420;-68
2022/01/05 03:14:14;;;;;;;;;;;3.70;99.90;;;;;;5010124;28;20018;-69
2022/01/05 03:16:39;;;;;;;;;;;3.80;99.90;;;;;;5027908;28;19963;-68
2022/01/05 03:19:05;;;;;;;;;;;3.70;99.90;;;;;;5030336;28;20198;-69
2022/01/05 03:21:30;;;;;;;;;;;3.90;99.90;;;;;;5029371;28;19992;-70
2022/01/05 03:23:56;;;;;;;;;;;3.90;99.90;;;;;;5026558;28;19917;-74
2022/01/05 03:26:21;;;;;;;;;;;3.90;99.90;;;;;;5027010;28;19917;-71
2022/01/05 03:28:47;;;;;;;;;;;3.90;99.90;;;;;;5026458;28;19971;-69
2022/01/05 03:31:12;;;;;;;;;;;3.90;99.90;;;;;;5026977;28;19921;-69
2022/01/05 03:33:38;;;;;;;;;;;3.90;99.90;;;;;;5040060;28;19909;-67
2022/01/05 03:36:03;;;;;;;;;;;3.90;99.90;;;;;;5031945;28;19913;-71
2022/01/05 03:38:30;;;;;;;;;;;3.90;99.90;;;;;;5026977;28;20015;-69
2022/01/05 03:40:55;;;;;;;;;;;3.90;99.90;;;;;;5029285;28;19909;-69
2022/01/05 03:43:21;;;;;;;;;;;3.90;99.90;;;;;;5027692;28;19923;-69
2022/01/05 03:45:47;;;;;;;;;;;3.90;99.90;;;;;;5027486;28;20410;-69
2022/01/05 03:48:14;;;;;;;;;;;3.90;99.90;;;;;;5027928;28;19913;-69
2022/01/05 03:50:39;;;;;;;;;;;3.90;99.90;;;;;;5026945;28;20302;-69
2022/01/05 03:53:05;;;;;;;;;;;3.90;99.90;;;;;;5029480;28;20013;-69
2022/01/05 03:55:32;;;;;;;;;;;3.90;99.90;;;;;;5042371;28;19951;-69
2022/01/05 03:57:57;;;;;;;;;;;3.90;99.90;;;;;;5050495;28;19912;-69
2022/01/05 04:00:24;;;;;;;;;;;3.90;99.90;;;;;;5049432;28;19912;-70
2022/01/05 04:02:49;;;;;;;;;;;3.90;99.90;;;;;;5029290;28;19952;-70
2022/01/05 04:05:15;;;;;;;;;;;3.90;99.90;;;;;;5047673;28;19959;-70
2022/01/05 04:07:41;;;;;;;;;;;4.00;99.90;;;;;;5047118;28;19912;-70
2022/01/05 04:10:06;;;;;;;;;;;4.00;99.90;;;;;;5047106;28;19917;-70
2022/01/05 04:12:32;;;;;;;;;;;4.10;99.90;;;;;;5047166;28;19920;-68
2022/01/05 04:14:57;;;;;;;;;;;4.10;99.90;;;;;;5049890;28;19921;-70
2022/01/05 04:17:23;;;;;;;;;;;4.10;99.90;;;;;;5047157;28;19920;-71
2022/01/05 04:19:48;;;;;;;;;;;4.20;99.90;;;;;;5046506;28;19917;-70
2022/01/05 04:22:15;;;;;;;;;;;4.20;99.90;;;;;;5042381;28;19960;-69
2022/01/05 04:24:40;;;;;;;;;;;4.20;99.90;;;;;;5029739;28;19913;-70
2022/01/05 04:27:06;;;;;;;;;;;4.20;99.90;;;;;;5029627;28;19953;-70
2022/01/05 04:29:31;;;;;;;;;;;4.20;99.90;;;;;;5028903;28;19999;-70
2022/01/05 04:31:56;;;;;;;;;;;4.20;99.90;;;;;;5016666;28;19913;-70
2022/01/05 04:34:22;;;;;;;;;;;4.30;99.90;;;;;;5028122;28;19913;-70
2022/01/05 04:36:47;;;;;;;;;;;4.30;99.90;;;;;;5047702;28;19959;-70
2022/01/05 04:39:13;;;;;;;;;;;4.30;99.90;;;;;;5048338;28;19909;-70
2022/01/05 04:41:38;;;;;;;;;;;4.40;99.90;;;;;;5049550;28;19944;-70
2022/01/05 04:44:04;;;;;;;;;;;4.40;99.90;;;;;;5048305;28;20373;-68
2022/01/05 04:46:29;;;;;;;;;;;4.40;99.90;;;;;;5029815;28;20016;-69
2022/01/05 04:48:55;;;;;;;;;;;4.40;99.90;;;;;;5027773;28;19918;-70
2022/01/05 04:51:20;;;;;;;;;;;4.40;99.90;;;;;;5031114;28;20383;-68
2022/01/05 04:53:46;;;;;;;;;;;4.40;99.90;;;;;;5011907;28;20006;-71
2022/01/05 04:56:11;;;;;;;;;;;4.50;99.90;;;;;;5021853;28;19917;-69
2022/01/05 04:58:37;;;;;;;;;;;4.50;99.90;;;;;;5029826;28;20401;-72
2022/01/05 05:01:02;;;;;;;;;;;4.50;99.90;;;;;;5031934;28;19945;-71
2022/01/05 05:03:28;;;;;;;;;;;4.50;99.90;;;;;;5029464;28;19921;-69
2022/01/05 05:05:53;;;;;;;;;;;4.50;99.90;;;;;;5024951;28;20346;-70
2022/01/05 05:08:19;;;;;;;;;;;4.50;99.90;;;;;;5028605;28;20003;-71
2022/01/05 05:10:44;;;;;;;;;;;4.60;99.90;;;;;;5015728;28;19913;-69
2022/01/05 05:13:10;;;;;;;;;;;4.60;99.90;;;;;;5020031;28;20425;-67
2022/01/05 05:15:36;;;;;;;;;;;4.60;99.90;;;;;;5013200;28;19925;-71
2022/01/05 05:18:02;;;;;;;;;;;4.60;99.90;;;;;;5014684;28;19910;-68
2022/01/05 05:20:27;;;;;;;;;;;4.60;99.90;;;;;;5018452;28;19917;-70
2022/01/05 05:22:53;;;;;;;;;;;4.60;99.90;;;;;;5004963;28;19921;-69
2022/01/05 05:25:18;;;;;;;;;;;4.60;99.90;;;;;;5012780;28;19959;-67
2022/01/05 05:27:44;;;;;;;;;;;4.60;99.90;;;;;;5014324;28;19929;-70
2022/01/05 05:30:09;;;;;;;;;;;4.60;99.90;;;;;;5011830;28;19940;-70
2022/01/05 05:32:35;;;;;;;;;;;4.70;99.90;;;;;;5014251;28;19916;-69
2022/01/05 05:35:00;;;;;;;;;;;4.70;99.90;;;;;;5011165;28;20442;-69
2022/01/05 05:37:26;;;;;;;;;;;4.70;99.90;;;;;;5033417;28;20445;-68
2022/01/05 05:39:51;;;;;;;;;;;4.70;99.90;;;;;;5040109;28;19913;-70
2022/01/05 05:42:17;;;;;;;;;;;4.70;99.90;;;;;;5008782;28;20010;-71
2022/01/05 05:44:42;;;;;;;;;;;4.70;99.90;;;;;;5011689;28;19917;-70
2022/01/05 05:47:08;;;;;;;;;;;4.80;99.90;;;;;;5011967;28;19916;-70
2022/01/05 05:49:33;;;;;;;;;;;4.80;99.90;;;;;;5012953;28;20010;-71
2022/01/05 05:51:59;;;;;;;;;;;4.70;99.90;;;;;;5011532;28;20124;-70
2022/01/05 05:54:24;;;;;;;;;;;4.70;99.90;;;;;;5013966;28;19983;-70
2022/01/05 05:56:50;;;;;;;;;;;4.70;99.90;;;;;;5020755;28;19917;-70
2022/01/05 05:59:15;;;;;;;;;;;4.80;99.90;;;;;;5032734;28;19913;-69
2022/01/05 06:01:41;;;;;;;;;;;4.80;99.90;;;;;;5024407;28;20130;-70
2022/01/05 06:04:06;;;;;;;;;;;4.80;99.90;;;;;;5029175;28;19920;-69
2022/01/05 06:06:32;;;;;;;;;;;4.80;99.90;;;;;;5032376;28;19909;-70
2022/01/05 06:08:57;;;;;;;;;;;4.80;99.90;;;;;;5029292;28;19999;-71
2022/01/05 06:11:23;;;;;;;;;;;4.80;99.90;;;;;;5028715;28;19924;-69
2022/01/05 06:13:50;;;;;;;;;;;4.80;99.90;;;;;;5028358;28;19994;-70
2022/01/05 06:16:15;;;;;;;;;;;4.80;99.90;;;;;;5028394;28;19913;-69
2022/01/05 06:18:41;;;;;;;;;;;4.90;99.90;;;;;;5028100;28;20413;-70
2022/01/05 06:21:06;;;;;;;;;;;4.90;99.90;;;;;;5026410;28;19913;-69
2022/01/05 06:23:32;;;;;;;;;;;4.90;99.90;;;;;;5028055;28;19921;-72
2022/01/05 06:25:57;;;;;;;;;;;4.90;99.90;;;;;;5024542;28;19913;-70
2022/01/05 06:28:23;;;;;;;;;;;4.90;99.90;;;;;;5037610;28;19920;-70
2022/01/05 06:30:48;;;;;;;;;;;4.90;99.90;;;;;;5038684;28;19944;-70
2022/01/05 06:33:14;;;;;;;;;;;4.90;99.90;;;;;;5021273;28;19917;-69
2022/01/05 06:35:39;;;;;;;;;;;4.90;99.90;;;;;;5005644;28;20417;-70
2022/01/05 06:38:05;;;;;;;;;;;4.90;99.90;;;;;;5015118;28;20260;-69
2022/01/05 06:40:31;;;;;;;;;;;4.90;99.90;;;;;;5018730;28;19913;-70
2022/01/05 06:42:56;;;;;;;;;;;4.90;99.90;;;;;;5004062;28;20323;-69
2022/01/05 06:45:22;;;;;;;;;;;5.00;99.90;;;;;;5020664;28;20218;-70
2022/01/05 06:47:47;;;;;;;;;;;5.00;99.90;;;;;;5019332;28;20293;-69
2022/01/05 06:50:13;;;;;;;;;;;5.00;99.90;;;;;;5016836;28;20326;-73
2022/01/05 06:52:39;;;;;;;;;;;5.00;99.90;;;;;;5031060;28;20138;-74
2022/01/05 06:55:05;;;;;;;;;;;5.00;99.90;;;;;;5028665;28;20204;-72
2022/01/05 06:57:30;;;;;;;;;;;5.00;99.90;;;;;;5027148;28;19909;-69
2022/01/05 06:59:56;;;;;;;;;;;5.00;99.90;;;;;;5027967;28;19959;-68
2022/01/05 07:02:22;;;;;;;;;;;5.00;99.90;;;;;;5028593;28;19912;-69
2022/01/05 07:04:47;;;;;;;;;;;5.00;99.90;;;;;;5027562;28;19966;-72
2022/01/05 07:07:12;;;;;;;;;;;5.00;99.90;;;;;;5029024;28;19909;-67
2022/01/05 07:09:38;;;;;;;;;;;5.00;99.90;;;;;;5029832;28;20007;-71
2022/01/05 07:12:04;;;;;;;;;;;5.10;99.90;;;;;;5030494;28;19935;-70
2022/01/05 07:14:29;;;;;;;;;;;5.10;99.90;;;;;;5030515;28;19983;-69
2022/01/05 07:16:55;;;;;;;;;;;5.10;99.90;;;;;;5042916;28;20333;-69
2022/01/05 07:19:20;;;;;;;;;;;5.10;99.90;;;;;;5038779;28;19909;-69
2022/01/05 07:21:46;;;;;;;;;;;5.10;99.90;;;;;;5032731;28;19955;-72
2022/01/05 07:24:16;;;;;;;;;;;5.20;99.90;;;;;;5028132;28;20440;-70
2022/01/05 07:26:41;;;;;;;;;;;5.10;99.90;;;;;;5027953;28;19909;-75
2022/01/05 07:29:07;;;;;;;;;;;5.10;99.90;;;;;;5034689;28;20019;-70
2022/01/05 07:31:32;;;;;;;;;;;5.10;99.90;;;;;;5048109;28;19909;-69
2022/01/05 07:33:58;;;;;;;;;;;5.10;99.90;;;;;;5007280;28;19917;-70
2022/01/05 07:36:23;;;;;;;;;;;5.00;99.90;;;;;;5007489;28;20115;-71
2022/01/05 07:38:49;;;;;;;;;;;5.00;99.90;;;;;;5007378;28;20359;-68
2022/01/05 07:41:14;;;;;;;;;;;5.00;99.90;;;;;;5007835;28;19920;-69
2022/01/05 07:43:40;;;;;;;;;;;5.00;99.90;;;;;;5008210;28;20330;-71
2022/01/05 07:46:05;;;;;;;;;;;5.10;99.90;;;;;;5007846;28;19909;-70
2022/01/05 07:48:30;;;;;;;;;;;5.00;99.90;;;;;;5021632;28;19912;-67
2022/01/05 07:50:56;;;;;;;;;;;5.00;99.90;;;;;;5027418;28;20009;-69
2022/01/05 07:53:21;;;;;;;;;;;5.00;99.90;;;;;;5026507;28;19919;-72
2022/01/05 07:55:47;;;;;;;;;;;5.00;99.90;;;;;;5026186;28;19909;-74
2022/01/05 07:58:13;;;;;;;;;;;5.00;99.90;;;;;;5027413;28;19984;-69
2022/01/05 08:00:38;;;;;;;;;;;5.00;99.90;;;;;;5027897;28;19917;-69
2022/01/05 08:03:04;;;;;;;;;;;5.10;99.90;;;;;;5028100;28;19921;-69
2022/01/05 08:05:29;;;;;;;;;;;5.10;99.90;;;;;;5010431;28;20305;-70
2022/01/05 08:07:55;;;;;;;;;;;5.10;99.90;;;;;;5027063;28;19909;-68
2022/01/05 08:10:21;;;;;;;;;;;5.10;99.90;;;;;;5027767;28;20382;-70
2022/01/05 08:12:46;;;;;;;;;;;5.20;99.90;;;;;;5027073;28;19913;-73
2022/01/05 08:15:12;;;;;;;;;;;5.20;99.90;;;;;;5026784;28;20625;-71
2022/01/05 08:17:38;;;;;;;;;;;5.20;99.90;;;;;;5027392;28;19909;-71
2022/01/05 08:20:04;;;;;;;;;;;5.20;99.90;;;;;;5027493;28;20513;-70
2022/01/05 08:22:29;;;;;;;;;;;5.30;99.90;;;;;;5028111;28;20229;-70
2022/01/05 08:24:55;;;;;;;;;;;5.30;99.90;;;;;;5027509;28;19913;-69
2022/01/05 08:27:20;;;;;;;;;;;5.30;99.90;;;;;;5028048;28;20338;-70
2022/01/05 08:29:46;;;;;;;;;;;5.40;99.90;;;;;;5029458;28;19917;-68
2022/01/05 08:32:11;;;;;;;;;;;5.40;99.90;;;;;;5013521;28;19913;-75
2022/01/05 08:34:37;;;;;;;;;;;5.40;99.90;;;;;;5033619;28;19936;-71
2022/01/05 08:37:02;;;;;;;;;;;5.40;99.90;;;;;;5026780;28;19993;-69
2022/01/05 08:39:28;;;;;;;;;;;5.50;99.90;;;;;;5037135;28;19932;-75
2022/01/05 08:41:53;;;;;;;;;;;5.50;99.90;;;;;;5033714;28;19922;-68
2022/01/05 08:44:19;;;;;;;;;;;5.50;99.90;;;;;;5033323;28;19920;-70
2022/01/05 08:46:44;;;;;;;;;;;5.50;99.90;;;;;;5031197;28;19971;-73
2022/01/05 08:49:10;;;;;;;;;;;5.50;99.90;;;;;;5027840;28;19931;-70
2022/01/05 08:51:36;;;;;;;;;;;5.60;99.90;;;;;;5029415;28;19936;-71
2022/01/05 08:54:02;;;;;;;;;;;5.50;99.90;;;;;;5029520;28;19936;-68
2022/01/05 08:56:28;;;;;;;;;;;5.60;99.90;;;;;;5029350;28;19960;-70
2022/01/05 08:58:54;;;;;;;;;;;5.60;99.90;;;;;;5029176;28;19974;-72
2022/01/05 09:01:19;;;;;;;;;;;5.60;99.90;;;;;;5030255;28;20326;-68
2022/01/05 09:03:45;;;;;;;;;;;5.60;99.90;;;;;;5031833;28;19921;-68
2022/01/05 09:06:10;;;;;;;;;;;5.60;99.90;;;;;;5017456;28;19909;-68
2022/01/05 09:08:37;;;;;;;;;;;5.60;99.90;;;;;;5027665;28;19913;-70
2022/01/05 09:11:03;;;;;;;;;;;5.60;99.90;;;;;;5014572;28;19980;-71
2022/01/05 09:13:28;;;;;;;;;;;5.60;99.90;;;;;;5029836;28;19913;-70
2022/01/05 09:15:54;;;;;;;;;;;5.70;99.90;;;;;;5029032;28;19952;-69
2022/01/05 09:18:20;;;;;;;;;;;5.70;99.90;;;;;;5029949;28;19909;-69
2022/01/05 09:20:45;;;;;;;;;;;5.80;99.90;;;;;;5027881;28;19917;-70
2022/01/05 09:23:11;;;;;;;;;;;5.80;99.90;;;;;;5027617;28;20164;-69
2022/01/05 09:25:36;;;;;;;;;;;5.80;99.90;;;;;;5027948;28;19909;-70
2022/01/05 09:28:02;;;;;;;;;;;5.80;99.90;;;;;;5009519;28;20214;-70
2022/01/05 09:30:28;;;;;;;;;;;5.80;99.90;;;;;;5027041;28;19940;-70
2022/01/05 09:32:53;;;;;;;;;;;5.80;99.90;;;;;;5029629;28;19919;-71
2022/01/05 09:35:22;;;;;;;;;;;5.80;99.90;;;;;;5036208;28;19909;-71
2022/01/05 09:38:09;;;;;;;;;;;5.80;99.90;;;;;;5030112;28;19948;-68
2022/01/05 09:43:21;;;;;;;;;;;5.90;99.90;;;;;;5028439;28;19920;-70
2022/01/05 09:45:52;;;;;;;;;;;5.80;99.90;;;;;;5028693;28;19913;-69
2022/01/05 09:48:30;;;;;;;;;;;5.80;99.90;;;;;;5010961;28;20399;-70
2022/01/05 09:51:01;;;;;;;;;;;5.80;99.90;;;;;;5033132;28;19909;-71
2022/01/05 09:53:28;;;;;;;;;;;5.80;99.90;;;;;;5032674;28;19959;-70
2022/01/05 09:55:54;;;;;;;;;;;5.80;99.90;;;;;;5038141;28;19909;-71
2022/01/05 09:58:21;;;;;;;;;;;5.90;99.90;;;;;;5035081;28;20157;-69
2022/01/05 10:00:47;;;;;;;;;;;5.90;99.90;;;;;;5017590;28;19970;-69
2022/01/05 10:03:14;;;;;;;;;;;6.00;99.90;;;;;;5030414;28;19921;-69
2022/01/05 10:05:40;;;;;;;;;;;6.00;99.90;;;;;;5010315;28;20281;-69
2022/01/05 10:08:06;;;;;;;;;;;6.00;99.90;;;;;;5028488;28;20341;-70
2022/01/05 10:10:31;;;;;;;;;;;6.00;99.90;;;;;;5028749;28;19937;-69
2022/01/05 10:12:57;;;;;;;;;;;6.00;99.90;;;;;;5010811;28;19909;-69
2022/01/05 10:15:23;;;;;;;;;;;6.00;99.90;;;;;;5028076;28;19913;-68
2022/01/05 10:17:49;;;;;;;;;;;6.10;99.90;;;;;;5010771;28;19909;-69
2022/01/05 10:20:14;;;;;;;;;;;6.10;99.90;;;;;;5028657;28;20367;-69
2022/01/05 10:22:40;;;;;;;;;;;6.10;99.90;;;;;;5029121;28;19920;-71
2022/01/05 10:25:16;;;;;;;;;;;6.10;99.90;;;;;;5029553;28;19920;-69
2022/01/05 10:27:41;;;;;;;;;;;6.00;99.90;;;;;;5028448;28;20027;-71
2022/01/05 10:30:07;;;;;;;;;;;6.00;99.90;;;;;;5027136;28;19946;-70
2022/01/05 10:32:34;;;;;;;;;;;6.00;99.90;;;;;;5027141;28;20374;-68
2022/01/05 10:34:59;;;;;;;;;;;5.90;99.90;;;;;;5010188;28;19909;-69
2022/01/05 10:37:25;;;;;;;;;;;6.00;99.90;;;;;;5028159;28;19936;-69
2022/01/05 10:40:02;;;;;;;;;;;5.90;99.90;;;;;;5030182;28;20295;-71
2022/01/05 10:42:34;;;;;;;;;;;5.90;99.90;;;;;;5013032;28;19959;-68
2022/01/05 10:45:02;;;;;;;;;;;5.90;99.90;;;;;;5031190;28;19909;-70
2022/01/05 10:47:27;;;;;;;;;;;6.00;99.90;;;;;;5030086;28;19920;-69
2022/01/05 10:49:54;;;;;;;;;;;6.00;99.90;;;;;;5030588;28;19910;-70
2022/01/05 10:52:27;;;;;;;;;;;6.10;99.90;;;;;;5012428;28;19909;-69
2022/01/05 10:54:53;;;;;;;;;;;6.10;99.90;;;;;;5030423;28;19984;-70
2022/01/05 10:57:19;;;;;;;;;;;6.00;99.90;;;;;;5030862;28;19941;-69
2022/01/05 10:59:48;;;;;;;;;;;6.00;99.90;;;;;;5030138;28;20302;-70
2022/01/05 11:02:24;;;;;;;;;;;6.00;99.90;;;;;;5014080;28;20028;-72
2022/01/05 11:04:51;;;;;;;;;;;6.10;99.90;;;;;;5013472;28;19913;-69
2022/01/05 11:07:21;;;;;;;;;;;6.00;99.90;;;;;;5032170;28;20312;-73
2022/01/05 11:09:53;;;;;;;;;;;6.10;99.90;;;;;;5013693;28;20133;-68
2022/01/05 11:12:18;;;;;;;;;;;6.10;99.90;;;;;;5031906;28;20391;-70
2022/01/05 11:14:44;;;;;;;;;;;6.10;99.90;;;;;;5016401;28;19944;-70
2022/01/05 11:17:09;;;;;;;;;;;6.20;99.90;;;;;;5034209;28;19920;-71
2022/01/05 11:19:36;;;;;;;;;;;6.20;99.90;;;;;;5030737;28;19913;-70
2022/01/05 11:22:04;;;;;;;;;;;6.20;99.90;;;;;;5029896;28;19909;-69
2022/01/05 11:24:48;;;;;;;;;;;6.20;99.90;;;;;;5030960;28;19932;-70
2022/01/05 11:27:18;;;;;;;;;;;6.20;99.90;;;;;;5030729;28;19913;-70
2022/01/05 11:29:44;;;;;;;;;;;6.30;99.90;;;;;;5030056;28;19927;-70
2022/01/05 11:32:11;;;;;;;;;;;6.30;99.90;;;;;;5012439;28;20409;-67
2022/01/05 11:34:37;;;;;;;;;;;6.30;99.90;;;;;;5012704;28;19920;-68
2022/01/05 11:37:03;;;;;;;;;;;6.40;99.90;;;;;;5031580;28;19909;-69
2022/01/05 11:39:30;;;;;;;;;;;6.40;99.90;;;;;;5043266;28;19898;-68
2022/01/05 11:41:57;;;;;;;;;;;6.40;99.90;;;;;;5027673;28;20255;-71
2022/01/05 11:44:26;;;;;;;;;;;6.60;99.90;;;;;;5030968;28;19917;-69
2022/01/05 11:46:51;;;;;;;;;;;6.70;99.90;;;;;;5029970;28;19951;-70
2022/01/05 11:49:24;;;;;;;;;;;6.80;99.90;;;;;;5029594;28;19944;-70
2022/01/05 11:51:50;;;;;;;;;;;6.90;99.90;;;;;;5028511;28;19996;-70
2022/01/05 11:54:32;;;;;;;;;;;7.00;99.90;;;;;;5029811;28;19913;-69
2022/01/05 11:57:04;;;;;;;;;;;6.80;99.90;;;;;;5030778;28;19915;-70
2022/01/05 11:59:37;;;;;;;;;;;6.60;99.90;;;;;;5034863;28;20413;-70
2022/01/05 12:02:05;;;;;;;;;;;6.60;99.90;;;;;;5035186;28;19920;-70
2022/01/05 12:04:31;;;;;;;;;;;6.50;99.90;;;;;;5032366;28;20044;-69
2022/01/05 12:07:00;;;;;;;;;;;6.50;99.90;;;;;;5031635;28;19932;-68
2022/01/05 12:09:28;;;;;;;;;;;6.50;99.90;;;;;;5029717;28;19967;-69
2022/01/05 12:11:54;;;;;;;;;;;6.50;99.90;;;;;;5027435;28;19916;-69
2022/01/05 12:14:19;;;;;;;;;;;6.60;99.90;;;;;;5027990;28;19979;-71
2022/01/05 12:17:03;;;;;;;;;;;6.60;99.90;;;;;;5028156;28;20413;-71
2022/01/05 12:19:55;;;;;;;;;;;6.60;99.90;;;;;;5028318;28;19963;-69
2022/01/05 12:22:24;;;;;;;;;;;6.50;99.90;;;;;;5026831;28;20004;-71
2022/01/05 12:24:56;;;;;;;;;;;6.50;99.90;;;;;;5009339;28;20381;-70
2022/01/05 12:27:22;;;;;;;;;;;6.40;99.90;;;;;;5027084;28;20378;-69
2022/01/05 12:29:48;;;;;;;;;;;6.50;99.90;;;;;;5026191;28;20283;-70
2022/01/05 12:32:33;;;;;;;;;;;6.50;99.90;;;;;;5027405;28;19925;-69
2022/01/05 12:34:59;;;;;;;;;;;6.50;99.90;;;;;;5024981;28;19913;-69
2022/01/05 12:37:38;;;;;;;;;;;6.40;99.90;;;;;;5027741;28;20398;-70
2022/01/05 12:40:23;;;;;;;;;;;6.50;99.90;;;;;;5027048;28;20322;-74
2022/01/05 12:42:49;;;;;;;;;;;6.40;99.90;;;;;;5025976;28;19913;-70
2022/01/05 12:45:33;;;;;;;;;;;6.40;99.90;;;;;;5025572;28;19955;-70
2022/01/05 12:47:58;;;;;;;;;;;6.40;99.90;;;;;;5026173;28;19949;-69
2022/01/05 12:50:31;;;;;;;;;;;6.40;99.90;;;;;;5025932;28;19941;-69
2022/01/05 12:52:57;;;;;;;;;;;6.40;99.90;;;;;;5026781;28;19916;-72
2022/01/05 12:55:23;;;;;;;;;;;6.50;99.90;;;;;;5026650;28;19909;-68
2022/01/05 12:57:52;;;;;;;;;;;6.50;99.90;;;;;;5025902;28;19932;-70
2022/01/05 13:00:18;;;;;;;;;;;6.50;99.90;;;;;;5008126;28;19909;-69
2022/01/05 13:02:45;;;;;;;;;;;6.50;99.90;;;;;;5008225;28;19924;-69
2022/01/05 13:05:10;;;;;;;;;;;6.50;99.90;;;;;;5025992;28;19909;-70
2022/01/05 13:07:41;;;;;;;;;;;6.60;99.90;;;;;;5026058;28;20293;-70
2022/01/05 13:10:13;;;;;;;;;;;6.60;99.90;;;;;;5030266;28;19913;-70
2022/01/05 13:12:39;;;;;;;;;;;6.70;99.90;;;;;;5028067;28;19909;-69
2022/01/05 13:15:07;;;;;;;;;;;6.70;99.90;;;;;;5025196;28;19932;-73
2022/01/05 13:17:35;;;;;;;;;;;6.70;99.90;;;;;;5026000;28;19909;-69
2022/01/05 13:20:03;;;;;;;;;;;6.80;99.90;;;;;;5024868;28;19916;-70
2022/01/05 13:22:35;;;;;;;;;;;6.70;99.90;;;;;;5007958;28;20003;-69
2022/01/05 13:25:21;;;;;;;;;;;6.60;99.90;;;;;;5025956;28;19913;-70
2022/01/05 13:27:48;;;;;;;;;;;6.60;99.90;;;;;;5025707;28;19916;-70
2022/01/05 13:30:15;;;;;;;;;;;6.50;99.90;;;;;;5024903;28;19979;-70
2022/01/05 13:32:41;;;;;;;;;;;6.50;99.90;;;;;;5025035;28;20343;-71
2022/01/05 13:35:11;;;;;;;;;;;6.40;99.90;;;;;;5028524;28;19983;-71
2022/01/05 13:37:38;;;;;;;;;;;6.40;99.90;;;;;;5028159;28;19909;-70
2022/01/05 13:40:07;;;;;;;;;;;6.40;99.90;;;;;;5027918;28;19963;-68
2022/01/05 13:42:34;;;;;;;;;;;6.40;99.90;;;;;;5025536;28;19917;-69
2022/01/05 13:45:00;;;;;;;;;;;6.40;99.90;;;;;;5026529;28;19912;-70
2022/01/05 13:47:26;;;;;;;;;;;6.40;99.90;;;;;;5025939;28;20359;-72
2022/01/05 13:50:05;;;;;;;;;;;6.40;99.90;;;;;;5024872;28;19909;-71
2022/01/05 13:52:30;;;;;;;;;;;6.50;99.90;;;;;;5025651;28;19949;-72
2022/01/05 13:54:56;;;;;;;;;;;6.60;99.90;;;;;;5025224;28;19948;-66
2022/01/05 13:57:28;;;;;;;;;;;6.50;99.90;;;;;;5024394;28;19913;-69
2022/01/05 13:59:58;;;;;;;;;;;6.50;99.90;;;;;;5024791;28;19909;-71
2022/01/05 14:02:23;;;;;;;;;;;6.50;99.90;;;;;;5025559;28;19932;-69
2022/01/05 14:04:50;;;;;;;;;;;6.50;99.90;;;;;;5025223;28;19909;-70
2022/01/05 14:07:17;;;;;;;;;;;6.50;99.90;;;;;;5025599;28;19913;-70
2022/01/05 14:09:42;;;;;;;;;;;6.50;99.90;;;;;;5025757;28;19915;-70
2022/01/05 14:12:28;;;;;;;;;;;6.40;99.90;;;;;;5041625;28;20358;-71
2022/01/05 14:14:57;;;;;;;;;;;6.40;99.90;;;;;;5037907;28;20011;-72
2022/01/05 14:17:23;;;;;;;;;;;6.40;99.90;;;;;;5012477;28;19996;-70
2022/01/05 14:19:49;;;;;;;;;;;6.40;99.90;;;;;;5028040;28;20044;-69
2022/01/05 14:22:19;;;;;;;;;;;6.40;99.90;;;;;;5011125;28;19909;-71
2022/01/05 14:24:45;;;;;;;;;;;6.40;99.90;;;;;;5029407;28;20334;-70
2022/01/05 14:27:17;;;;;;;;;;;6.50;99.90;;;;;;5028670;28;19909;-70
2022/01/05 14:29:43;;;;;;;;;;;6.50;99.90;;;;;;5028350;28;19979;-68
2022/01/05 14:32:12;;;;;;;;;;;6.50;99.90;;;;;;5028397;28;20378;-71
2022/01/05 14:34:38;;;;;;;;;;;6.50;99.90;;;;;;5030671;28;20205;-68